If you wish to contribute or participate in the discussions about articles you are invited to join SKYbrary as a registered user

 Actions

Pirineus - la Seu d'Urgel airport

From SKYbrary Wiki

LESU
Airport
ICAO: LESU – IATA: LEU
Summary
Name Pirineus - la Seu d'Urgel airport
Region Europe
Territory Spain ES.gif
Location Montferrer i Castellbò, Andorra
Serving Andorra
Elevation 800.1 m <br />2,625 ft <br />2,625 ft800.1 m <br />
Coordinates 42° 20' 27.42" N, 1° 24' 39.09" E
Runways
Designator Length Width Surface ROPS
4/22 1340 m4,396.325 ft <br /> 30 m98.425 ft <br /> ASP /


METAR
Observation LESU 121330Z 17005KT 130V210 9999 FEW055TCU SCT070 27/12 Q1023
Station Aeròdrom dels Pirineus-Alt Urgell Airport
Date/Time 12 June 2021 13:30:00
Wind direction 170°
Wind speed 05 kts
Lowest cloud amount few clouds
Temperature 27°C
Dew point 12°C
Humidity 39%
QNH 1023 hPa
Weather condition n/a

Andorra–La Seu d'Urgell Airport is located in the municipality of Montferrer i Castellbò, in eastern Spain, and serves the city of la Seu d'Urgell and the microstate Principality of Andorra, which is 12 km6.479 nm <br />12,000 m <br />39,370.079 ft <br /> north of the airport.

Maps

Terrain

Loading map...

Airport Layout

Loading map...


Accidents & Serious Incidents at or in vicinity of LESU

None on SKYbrary